Time;durP1;ratioP1;P1;durP2;ratioP2;P2;SDS_P1;SDS_P2;PMS_P1;PMS_P2;Temp;Humidity;BMP_temperature;BMP_pressure;BME280_temperature;BME280_humidity;BME280_pressure;Samples;Min_cycle;Max_cycle;Signal;HPM_P1;HPM_P2
2023/05/24 00:01:55;;;;;;;15.30;4.38;;;;;;;;;;5030043;28;20072;-80
2023/05/24 00:04:23;;;;;;;15.75;5.30;;;;;;;;;;5029074;28;20049;-78
2023/05/24 00:06:49;;;;;;;13.80;4.72;;;;;;;;;;5027252;28;20366;-79
2023/05/24 00:09:15;;;;;;;14.50;4.85;;;;;;;;;;5025900;28;20046;-79
2023/05/24 00:11:41;;;;;;;16.80;4.93;;;;;;;;;;5032792;28;20107;-80
2023/05/24 00:14:07;;;;;;;15.70;4.63;;;;;;;;;;5026831;28;20103;-78
2023/05/24 00:16:35;;;;;;;16.15;5.43;;;;;;;;;;5024743;28;20493;-80
2023/05/24 00:19:01;;;;;;;12.00;4.28;;;;;;;;;;5030996;28;20060;-80
2023/05/24 00:21:27;;;;;;;14.75;4.93;;;;;;;;;;5024493;28;20057;-80
2023/05/24 00:23:53;;;;;;;16.17;4.75;;;;;;;;;;5028544;28;20512;-80
2023/05/24 00:26:19;;;;;;;14.13;4.88;;;;;;;;;;5026525;28;20111;-80
2023/05/24 00:28:45;;;;;;;17.40;4.72;;;;;;;;;;5019713;28;20033;-80
2023/05/24 00:31:11;;;;;;;14.18;4.93;;;;;;;;;;5026393;28;20041;-80
2023/05/24 00:33:37;;;;;;;18.13;5.13;;;;;;;;;;5029663;28;20052;-80
2023/05/24 00:36:03;;;;;;;17.42;4.93;;;;;;;;;;5027887;28;20451;-80
2023/05/24 00:38:29;;;;;;;15.02;4.60;;;;;;;;;;5025950;28;20042;-80
2023/05/24 00:40:55;;;;;;;16.35;4.43;;;;;;;;;;5030378;28;20432;-80
2023/05/24 00:43:21;;;;;;;16.20;4.90;;;;;;;;;;5025694;28;20516;-80
2023/05/24 00:45:47;;;;;;;14.05;4.55;;;;;;;;;;5026550;28;20140;-80
2023/05/24 00:48:13;;;;;;;17.42;5.00;;;;;;;;;;5029079;28;20084;-79
2023/05/24 00:50:42;;;;;;;14.20;4.18;;;;;;;;;;5031747;28;20041;-80
2023/05/24 00:53:09;;;;;;;13.73;4.22;;;;;;;;;;5022374;28;20092;-80
2023/05/24 00:55:35;;;;;;;14.25;5.05;;;;;;;;;;5028887;28;20535;-80
2023/05/24 00:58:01;;;;;;;12.15;4.85;;;;;;;;;;5030651;28;20037;-80
2023/05/24 01:00:28;;;;;;;13.68;4.15;;;;;;;;;;5026051;28;20060;-80
2023/05/24 01:02:55;;;;;;;14.77;4.32;;;;;;;;;;5027168;28;20068;-80
2023/05/24 01:05:22;;;;;;;17.77;4.20;;;;;;;;;;5028292;28;20045;-79
2023/05/24 01:08:08;;;;;;;18.70;4.85;;;;;;;;;;5028603;28;20084;-79
2023/05/24 01:10:40;;;;;;;14.07;4.20;;;;;;;;;;5029989;28;20591;-80
2023/05/24 01:13:19;;;;;;;12.52;4.68;;;;;;;;;;5019136;28;20048;-80
2023/05/24 01:15:51;;;;;;;16.08;4.55;;;;;;;;;;5027787;28;20033;-80
2023/05/24 01:18:28;;;;;;;15.52;4.70;;;;;;;;;;5027037;28;20048;-80
2023/05/24 01:21:05;;;;;;;17.38;4.57;;;;;;;;;;5024091;28;20057;-81
2023/05/24 01:23:50;;;;;;;18.52;4.63;;;;;;;;;;5025582;28;20120;-80
2023/05/24 01:26:16;;;;;;;17.67;4.22;;;;;;;;;;5024443;28;20399;-79
2023/05/24 01:28:43;;;;;;;17.83;5.20;;;;;;;;;;5028368;28;20108;-80
2023/05/24 01:31:10;;;;;;;19.30;4.32;;;;;;;;;;5023304;28;20053;-80
2023/05/24 01:33:40;;;;;;;18.73;4.80;;;;;;;;;;5029519;28;20123;-80
2023/05/24 01:36:06;;;;;;;11.52;3.80;;;;;;;;;;5025908;28;20148;-80
2023/05/24 01:38:32;;;;;;;14.38;4.97;;;;;;;;;;5026263;28;20057;-80
2023/05/24 01:41:01;;;;;;;11.80;4.20;;;;;;;;;;5029745;28;20041;-80
2023/05/24 01:43:32;;;;;;;18.67;4.70;;;;;;;;;;5026792;28;21372;-80
2023/05/24 01:46:03;;;;;;;14.43;4.43;;;;;;;;;;5022805;28;20532;-80
2023/05/24 01:48:32;;;;;;;13.50;4.53;;;;;;;;;;5022595;28;20049;-79
2023/05/24 01:50:59;;;;;;;16.42;5.65;;;;;;;;;;5029346;28;20515;-81
2023/05/24 01:53:25;;;;;;;13.15;4.05;;;;;;;;;;5026873;28;20041;-80
2023/05/24 01:55:53;;;;;;;14.80;4.75;;;;;;;;;;5029725;28;20095;-80
2023/05/24 01:58:20;;;;;;;14.82;4.57;;;;;;;;;;5025500;28;20160;-80
2023/05/24 02:00:46;;;;;;;14.48;4.70;;;;;;;;;;5025590;28;20043;-80
2023/05/24 02:03:14;;;;;;;11.40;4.80;;;;;;;;;;5025597;28;20179;-80
2023/05/24 02:05:40;;;;;;;9.75;4.03;;;;;;;;;;5026274;28;20099;-80
2023/05/24 02:08:07;;;;;;;12.77;4.38;;;;;;;;;;5026071;28;20050;-80
2023/05/24 02:10:33;;;;;;;14.75;3.88;;;;;;;;;;5026052;28;20060;-80
2023/05/24 02:12:59;;;;;;;13.85;4.18;;;;;;;;;;5026532;28;20366;-81
2023/05/24 02:15:29;;;;;;;12.50;4.03;;;;;;;;;;5023676;28;20048;-80
2023/05/24 02:17:55;;;;;;;16.90;4.28;;;;;;;;;;5026737;28;20095;-80
2023/05/24 02:20:24;;;;;;;17.98;4.97;;;;;;;;;;5025540;28;20041;-80
2023/05/24 02:22:50;;;;;;;13.25;4.38;;;;;;;;;;5020948;28;20397;-80
2023/05/24 02:25:16;;;;;;;16.38;4.88;;;;;;;;;;5038237;28;20041;-80
2023/05/24 02:27:45;;;;;;;14.35;4.55;;;;;;;;;;5024915;28;20492;-78
2023/05/24 02:30:12;;;;;;;14.95;4.10;;;;;;;;;;5020123;28;20080;-78
2023/05/24 02:32:38;;;;;;;12.85;4.32;;;;;;;;;;5025162;28;20106;-78
2023/05/24 02:35:05;;;;;;;14.35;4.28;;;;;;;;;;5027302;28;20386;-80
2023/05/24 02:37:31;;;;;;;14.95;4.60;;;;;;;;;;5026176;28;20571;-80
2023/05/24 02:39:57;;;;;;;17.65;4.68;;;;;;;;;;5018236;28;20038;-80
2023/05/24 02:42:23;;;;;;;17.08;4.20;;;;;;;;;;5024294;28;20033;-79
2023/05/24 02:44:51;;;;;;;11.85;4.15;;;;;;;;;;5024562;28;20046;-79
2023/05/24 02:47:17;;;;;;;10.15;3.58;;;;;;;;;;5023566;28;20072;-80
2023/05/24 02:49:43;;;;;;;12.38;3.60;;;;;;;;;;5023102;28;20080;-80
2023/05/24 02:52:10;;;;;;;14.23;4.68;;;;;;;;;;5025449;28;20042;-80
2023/05/24 02:54:36;;;;;;;13.60;4.32;;;;;;;;;;5024746;28;20057;-80
2023/05/24 02:57:02;;;;;;;13.45;4.63;;;;;;;;;;5027657;28;20037;-80
2023/05/24 02:59:28;;;;;;;12.57;4.05;;;;;;;;;;5025867;28;20080;-78
2023/05/24 03:01:54;;;;;;;15.60;4.57;;;;;;;;;;5025524;28;20068;-78
2023/05/24 03:04:20;;;;;;;14.23;3.90;;;;;;;;;;5024814;28;20053;-77
2023/05/24 03:06:46;;;;;;;15.57;3.83;;;;;;;;;;5027777;28;20041;-78
2023/05/24 03:09:12;;;;;;;13.70;4.75;;;;;;;;;;5030944;28;20393;-80
2023/05/24 03:11:38;;;;;;;15.35;4.57;;;;;;;;;;5029809;28;20386;-81
2023/05/24 03:14:05;;;;;;;12.15;4.15;;;;;;;;;;5029870;28;20071;-80
2023/05/24 03:16:31;;;;;;;14.93;4.28;;;;;;;;;;5027464;28;20124;-80
2023/05/24 03:18:58;;;;;;;12.55;4.20;;;;;;;;;;5033360;28;20069;-80
2023/05/24 03:21:25;;;;;;;15.27;4.57;;;;;;;;;;5030623;28;20060;-80
2023/05/24 03:23:51;;;;;;;12.02;4.60;;;;;;;;;;5026486;28;20099;-78
2023/05/24 03:26:20;;;;;;;10.15;4.63;;;;;;;;;;5029999;28;20041;-78
2023/05/24 03:28:46;;;;;;;11.73;4.25;;;;;;;;;;5031054;28;20049;-77
2023/05/24 03:31:12;;;;;;;15.80;5.15;;;;;;;;;;5023519;28;20053;-78
2023/05/24 03:33:39;;;;;;;12.35;4.50;;;;;;;;;;5029273;28;20038;-78
2023/05/24 03:36:08;;;;;;;17.42;4.45;;;;;;;;;;5033595;28;20052;-80
2023/05/24 03:38:34;;;;;;;11.55;4.38;;;;;;;;;;5029948;28;20042;-81
2023/05/24 03:41:00;;;;;;;10.98;4.32;;;;;;;;;;5031107;28;20052;-78
2023/05/24 03:43:26;;;;;;;15.25;4.38;;;;;;;;;;5025491;28;20060;-80
2023/05/24 03:45:52;;;;;;;11.10;4.13;;;;;;;;;;5026420;28;20046;-80
2023/05/24 03:48:21;;;;;;;14.68;3.95;;;;;;;;;;5030087;28;20053;-80
2023/05/24 03:50:47;;;;;;;14.80;3.95;;;;;;;;;;5027331;28;20042;-80
2023/05/24 03:53:13;;;;;;;13.05;4.07;;;;;;;;;;5029680;28;20057;-80
2023/05/24 03:55:39;;;;;;;20.40;4.65;;;;;;;;;;5029018;28;20056;-80
2023/05/24 03:58:05;;;;;;;15.30;5.10;;;;;;;;;;5030495;28;20393;-80
2023/05/24 04:00:32;;;;;;;16.17;4.63;;;;;;;;;;5027457;28;20069;-78
2023/05/24 04:02:59;;;;;;;18.23;4.63;;;;;;;;;;5026761;28;20132;-78
2023/05/24 04:05:28;;;;;;;15.77;4.50;;;;;;;;;;5024176;28;20065;-78
2023/05/24 04:07:54;;;;;;;13.05;3.95;;;;;;;;;;5027953;28;20053;-78
2023/05/24 04:10:20;;;;;;;14.68;4.78;;;;;;;;;;5028083;28;20493;-79
2023/05/24 04:12:46;;;;;;;16.42;4.75;;;;;;;;;;5023096;28;20044;-79
2023/05/24 04:15:14;;;;;;;15.50;4.53;;;;;;;;;;5029260;28;20056;-78
2023/05/24 04:17:41;;;;;;;16.90;4.22;;;;;;;;;;5028358;28;20064;-79
2023/05/24 04:20:08;;;;;;;12.60;4.47;;;;;;;;;;5027289;28;20052;-79
2023/05/24 04:22:35;;;;;;;10.90;4.35;;;;;;;;;;5024458;28;20170;-79
2023/05/24 04:25:01;;;;;;;12.13;4.72;;;;;;;;;;5025097;28;20058;-79
2023/05/24 04:27:29;;;;;;;15.45;4.40;;;;;;;;;;5025981;28;20137;-79
2023/05/24 04:29:55;;;;;;;16.25;4.22;;;;;;;;;;5028004;28;20054;-78
2023/05/24 04:32:22;;;;;;;14.27;4.18;;;;;;;;;;5029680;28;20048;-79
2023/05/24 04:34:49;;;;;;;14.95;4.28;;;;;;;;;;5026528;28;20128;-78
2023/05/24 04:37:17;;;;;;;17.77;4.50;;;;;;;;;;5029831;28;20823;-79
2023/05/24 04:39:44;;;;;;;13.90;4.35;;;;;;;;;;5030527;28;20072;-79
2023/05/24 04:42:13;;;;;;;11.05;4.35;;;;;;;;;;5021752;28;20045;-79
2023/05/24 04:44:43;;;;;;;15.38;4.80;;;;;;;;;;5029587;28;20520;-79
2023/05/24 04:47:09;;;;;;;11.85;4.43;;;;;;;;;;5025934;28;20037;-79
2023/05/24 04:49:36;;;;;;;19.60;4.75;;;;;;;;;;5028603;28;20050;-79
2023/05/24 04:52:02;;;;;;;15.73;4.40;;;;;;;;;;5026039;28;20104;-78
2023/05/24 04:54:28;;;;;;;15.02;4.55;;;;;;;;;;5029514;28;20140;-79
2023/05/24 04:56:54;;;;;;;15.05;4.45;;;;;;;;;;5027002;28;20041;-79
2023/05/24 04:59:20;;;;;;;13.82;4.63;;;;;;;;;;5028953;28;20049;-79
2023/05/24 05:01:47;;;;;;;11.48;4.53;;;;;;;;;;5026640;28;20448;-78
2023/05/24 05:04:13;;;;;;;13.48;4.38;;;;;;;;;;5026324;28;20052;-79
2023/05/24 05:06:39;;;;;;;15.48;4.60;;;;;;;;;;5022895;28;20045;-78
2023/05/24 05:09:09;;;;;;;13.80;4.20;;;;;;;;;;5027000;28;20042;-79
2023/05/24 05:11:35;;;;;;;13.52;4.50;;;;;;;;;;5025736;28;20052;-79
2023/05/24 05:14:02;;;;;;;15.48;4.53;;;;;;;;;;5029588;28;20068;-79
2023/05/24 05:16:28;;;;;;;13.80;4.05;;;;;;;;;;5026934;28;20125;-79
2023/05/24 05:18:54;;;;;;;16.67;4.70;;;;;;;;;;5028907;28;20059;-79
2023/05/24 05:21:20;;;;;;;13.77;4.88;;;;;;;;;;5028474;28;20125;-79
2023/05/24 05:23:46;;;;;;;14.65;4.70;;;;;;;;;;5022828;28;20128;-79
2023/05/24 05:26:12;;;;;;;16.70;4.55;;;;;;;;;;5029637;28;20045;-79
2023/05/24 05:28:38;;;;;;;16.30;4.75;;;;;;;;;;5020199;28;20402;-79
2023/05/24 05:31:04;;;;;;;14.20;4.80;;;;;;;;;;5027686;28;20571;-79
2023/05/24 05:33:31;;;;;;;13.57;4.20;;;;;;;;;;5028168;28;20107;-80
2023/05/24 05:35:57;;;;;;;15.90;4.50;;;;;;;;;;5029401;28;20042;-80
2023/05/24 05:38:23;;;;;;;13.63;4.53;;;;;;;;;;5026348;28;20103;-79
2023/05/24 05:40:49;;;;;;;16.85;5.35;;;;;;;;;;5022568;28;20069;-78
2023/05/24 05:43:15;;;;;;;17.15;4.80;;;;;;;;;;5025646;28;20044;-81
2023/05/24 05:45:41;;;;;;;13.63;4.70;;;;;;;;;;5029039;28;20076;-80
2023/05/24 05:48:07;;;;;;;13.43;4.53;;;;;;;;;;5023636;28;20038;-79
2023/05/24 05:50:33;;;;;;;14.68;4.68;;;;;;;;;;5026384;28;20508;-79
2023/05/24 05:52:59;;;;;;;17.08;4.63;;;;;;;;;;5030250;28;20052;-79
2023/05/24 05:55:25;;;;;;;9.52;4.00;;;;;;;;;;5027953;28;20085;-79
2023/05/24 05:57:51;;;;;;;16.98;4.32;;;;;;;;;;5022382;28;20517;-80
2023/05/24 06:00:17;;;;;;;15.35;4.53;;;;;;;;;;5026633;28;20053;-79
2023/05/24 06:02:43;;;;;;;15.07;4.57;;;;;;;;;;5026001;28;20489;-79
2023/05/24 06:05:09;;;;;;;11.43;4.15;;;;;;;;;;5028074;28;20041;-79
2023/05/24 06:07:37;;;;;;;12.52;4.60;;;;;;;;;;5027271;28;20068;-78
2023/05/24 06:10:03;;;;;;;16.15;5.00;;;;;;;;;;5018121;28;20615;-79
2023/05/24 06:12:29;;;;;;;14.85;4.53;;;;;;;;;;5024778;28;20057;-79
2023/05/24 06:14:58;;;;;;;15.80;4.53;;;;;;;;;;5022484;28;20045;-79
2023/05/24 06:17:24;;;;;;;13.13;4.03;;;;;;;;;;5024920;28;20046;-79
2023/05/24 06:19:52;;;;;;;9.73;4.07;;;;;;;;;;5023930;28;20068;-79
2023/05/24 06:22:18;;;;;;;13.43;4.30;;;;;;;;;;5027204;28;20048;-79
2023/05/24 06:24:45;;;;;;;14.80;4.55;;;;;;;;;;5025613;28;20599;-79
2023/05/24 06:27:11;;;;;;;14.45;4.50;;;;;;;;;;5020135;28;20120;-80
2023/05/24 06:29:37;;;;;;;15.43;4.78;;;;;;;;;;5022494;28;21802;-79
2023/05/24 06:32:03;;;;;;;19.23;4.78;;;;;;;;;;5024201;28;20042;-80
2023/05/24 06:34:29;;;;;;;10.10;3.80;;;;;;;;;;5024376;28;20049;-80
2023/05/24 06:36:55;;;;;;;13.63;3.72;;;;;;;;;;5021262;28;20104;-79
2023/05/24 06:39:21;;;;;;;11.27;3.95;;;;;;;;;;5025448;28;20037;-79
2023/05/24 06:41:50;;;;;;;14.07;4.75;;;;;;;;;;5024689;28;20045;-79
2023/05/24 06:44:16;;;;;;;13.15;4.55;;;;;;;;;;5028207;28;20053;-78
2023/05/24 06:46:42;;;;;;;10.52;4.05;;;;;;;;;;5030112;28;20073;-80
2023/05/24 06:49:08;;;;;;;12.32;4.00;;;;;;;;;;5025995;28;20052;-80
2023/05/24 06:51:35;;;;;;;10.20;3.90;;;;;;;;;;5022974;28;20137;-80
2023/05/24 06:54:01;;;;;;;12.27;4.55;;;;;;;;;;5027592;28;20042;-79
2023/05/24 06:56:27;;;;;;;16.23;4.18;;;;;;;;;;5030648;28;20107;-80
2023/05/24 06:58:54;;;;;;;10.90;4.10;;;;;;;;;;5031636;28;20548;-79
2023/05/24 07:01:21;;;;;;;11.27;4.03;;;;;;;;;;5022187;28;20120;-79
2023/05/24 07:03:48;;;;;;;8.85;4.05;;;;;;;;;;5030208;28;20045;-79
2023/05/24 07:06:15;;;;;;;17.05;4.32;;;;;;;;;;5030077;28;20041;-79
2023/05/24 07:08:41;;;;;;;12.90;3.60;;;;;;;;;;5025594;28;20045;-80
2023/05/24 07:11:07;;;;;;;15.85;5.00;;;;;;;;;;5028600;28;20046;-78
2023/05/24 07:13:33;;;;;;;13.50;4.30;;;;;;;;;;5028097;28;20100;-79
2023/05/24 07:16:00;;;;;;;14.30;4.32;;;;;;;;;;5032111;28;20050;-80
2023/05/24 07:18:26;;;;;;;15.98;3.90;;;;;;;;;;5030487;28;20045;-79
2023/05/24 07:20:52;;;;;;;12.73;4.15;;;;;;;;;;5033165;28;20069;-78
2023/05/24 07:23:18;;;;;;;15.23;4.80;;;;;;;;;;5028848;28;20046;-76
2023/05/24 07:25:44;;;;;;;16.23;4.28;;;;;;;;;;5028454;28;20045;-79
2023/05/24 07:28:10;;;;;;;16.50;4.78;;;;;;;;;;5029100;28;20034;-80
2023/05/24 07:30:38;;;;;;;13.13;4.82;;;;;;;;;;5025890;28;20046;-79
2023/05/24 07:33:04;;;;;;;11.48;4.03;;;;;;;;;;5014870;28;20061;-79
2023/05/24 07:35:31;;;;;;;11.18;4.20;;;;;;;;;;5017892;28;20385;-79
2023/05/24 07:37:57;;;;;;;17.38;4.53;;;;;;;;;;5036504;28;20053;-78
2023/05/24 07:40:23;;;;;;;12.27;3.50;;;;;;;;;;5028722;28;20048;-79
2023/05/24 07:42:49;;;;;;;14.30;3.95;;;;;;;;;;5032602;28;20123;-79
2023/05/24 07:45:15;;;;;;;11.90;4.15;;;;;;;;;;5029550;28;20057;-78
2023/05/24 07:47:41;;;;;;;12.48;3.92;;;;;;;;;;5033929;28;20056;-79
2023/05/24 07:50:08;;;;;;;10.48;3.65;;;;;;;;;;5030517;28;20046;-79
2023/05/24 07:52:34;;;;;;;8.52;3.40;;;;;;;;;;5029195;28;20512;-79
2023/05/24 07:55:00;;;;;;;8.93;4.13;;;;;;;;;;5033602;28;20389;-79
2023/05/24 07:57:27;;;;;;;11.80;3.90;;;;;;;;;;5030687;28;20056;-79
2023/05/24 07:59:53;;;;;;;11.25;3.67;;;;;;;;;;5027619;28;20104;-79
2023/05/24 08:02:19;;;;;;;16.35;4.40;;;;;;;;;;5029103;28;20049;-78
2023/05/24 08:04:46;;;;;;;16.13;4.03;;;;;;;;;;5029569;28;20048;-78
2023/05/24 08:07:13;;;;;;;10.68;3.70;;;;;;;;;;5031027;28;20049;-77
2023/05/24 08:09:39;;;;;;;13.68;4.20;;;;;;;;;;5034019;28;20041;-78
2023/05/24 08:12:05;;;;;;;12.02;4.35;;;;;;;;;;5029655;28;20049;-79
2023/05/24 08:14:32;;;;;;;12.15;4.03;;;;;;;;;;5028706;28;20128;-79
2023/05/24 08:17:01;;;;;;;12.02;3.90;;;;;;;;;;5035471;28;20050;-79
2023/05/24 08:19:34;;;;;;;16.20;4.15;;;;;;;;;;5022288;28;20056;-80
2023/05/24 08:22:03;;;;;;;12.13;3.83;;;;;;;;;;5031670;28;20116;-79
2023/05/24 08:24:30;;;;;;;12.13;3.97;;;;;;;;;;5029865;28;20049;-79
2023/05/24 08:26:56;;;;;;;11.45;3.95;;;;;;;;;;5025068;28;20060;-79
2023/05/24 08:29:23;;;;;;;14.25;4.22;;;;;;;;;;5027146;28;20049;-79
2023/05/24 08:31:49;;;;;;;5.72;2.97;;;;;;;;;;5025850;28;20045;-78
2023/05/24 08:34:15;;;;;;;9.60;4.00;;;;;;;;;;5027180;28;20065;-78
2023/05/24 08:36:42;;;;;;;14.70;4.28;;;;;;;;;;5028362;28;20087;-78
2023/05/24 08:39:09;;;;;;;13.27;3.78;;;;;;;;;;5030309;28;20547;-78
2023/05/24 08:41:38;;;;;;;7.50;3.95;;;;;;;;;;5027301;28;20048;-78
2023/05/24 08:44:07;;;;;;;11.13;4.10;;;;;;;;;;5028304;28;20485;-79
2023/05/24 08:46:36;;;;;;;10.25;3.97;;;;;;;;;;5023927;28;20473;-79
2023/05/24 08:49:03;;;;;;;11.95;4.45;;;;;;;;;;5030863;28;20053;-79
2023/05/24 08:51:29;;;;;;;10.32;3.78;;;;;;;;;;5028524;28;20052;-77
2023/05/24 08:53:59;;;;;;;10.27;4.22;;;;;;;;;;5030555;28;20052;-77
2023/05/24 08:56:26;;;;;;;10.90;3.80;;;;;;;;;;5028294;28;20061;-78
2023/05/24 08:58:52;;;;;;;9.82;3.72;;;;;;;;;;5029412;28;20038;-77
2023/05/24 09:01:19;;;;;;;16.45;4.70;;;;;;;;;;5021303;28;20140;-77
2023/05/24 09:03:46;;;;;;;12.68;3.55;;;;;;;;;;5028789;28;20065;-76
2023/05/24 09:06:12;;;;;;;13.18;3.67;;;;;;;;;;5017966;28;20041;-77
2023/05/24 09:08:39;;;;;;;12.88;3.95;;;;;;;;;;5027444;28;20057;-77
2023/05/24 09:11:07;;;;;;;10.13;3.70;;;;;;;;;;5017727;28;20100;-77
2023/05/24 09:13:34;;;;;;;9.90;3.55;;;;;;;;;;5020982;28;20045;-77
2023/05/24 09:16:00;;;;;;;7.50;3.40;;;;;;;;;;5020946;28;20489;-77
2023/05/24 09:18:26;;;;;;;11.07;3.80;;;;;;;;;;5021612;28;20044;-77
2023/05/24 09:20:52;;;;;;;9.32;3.53;;;;;;;;;;5019275;28;20045;-77
2023/05/24 09:23:18;;;;;;;9.70;3.88;;;;;;;;;;5024779;28;20369;-77
2023/05/24 09:25:45;;;;;;;9.32;3.60;;;;;;;;;;5024231;28;20489;-77
2023/05/24 09:28:13;;;;;;;11.60;3.60;;;;;;;;;;5020169;28;20037;-77
2023/05/24 09:30:39;;;;;;;12.65;3.63;;;;;;;;;;5029741;28;20396;-77
2023/05/24 09:33:07;;;;;;;12.38;3.83;;;;;;;;;;5030196;28;20045;-77
2023/05/24 09:35:33;;;;;;;8.00;3.70;;;;;;;;;;5020186;28;20050;-78
2023/05/24 09:37:59;;;;;;;10.55;3.50;;;;;;;;;;5025466;28;20045;-77
2023/05/24 09:40:26;;;;;;;9.85;3.90;;;;;;;;;;5024951;28;20856;-77
2023/05/24 09:43:04;;;;;;;11.07;3.83;;;;;;;;;;5027502;28;20038;-77
2023/05/24 09:45:30;;;;;;;9.50;3.95;;;;;;;;;;5026706;28;20064;-78
2023/05/24 09:47:56;;;;;;;12.07;3.80;;;;;;;;;;5024764;28;20111;-78
2023/05/24 09:50:25;;;;;;;9.02;3.67;;;;;;;;;;5027111;28;20138;-77
2023/05/24 09:52:53;;;;;;;10.48;3.47;;;;;;;;;;5028091;28;20052;-78
2023/05/24 09:55:19;;;;;;;9.48;3.63;;;;;;;;;;5026833;28;20049;-77
2023/05/24 09:57:50;;;;;;;14.13;3.95;;;;;;;;;;5025471;28;20037;-77
2023/05/24 10:00:21;;;;;;;11.50;3.97;;;;;;;;;;5023793;28;20041;-77
2023/05/24 10:02:59;;;;;;;14.63;4.53;;;;;;;;;;5023213;28;20053;-78
2023/05/24 10:05:25;;;;;;;11.02;3.78;;;;;;;;;;5020357;28;20046;-77
2023/05/24 10:07:52;;;;;;;12.23;4.05;;;;;;;;;;5022152;28;20042;-76
2023/05/24 10:10:18;;;;;;;8.88;3.45;;;;;;;;;;5022602;28;20045;-77
2023/05/24 10:12:45;;;;;;;7.90;3.60;;;;;;;;;;5014855;28;20057;-77
2023/05/24 10:15:11;;;;;;;8.15;3.63;;;;;;;;;;5026046;28;20111;-78
2023/05/24 10:17:37;;;;;;;10.32;3.53;;;;;;;;;;5025236;28;20045;-78
2023/05/24 10:20:05;;;;;;;9.70;3.63;;;;;;;;;;5026685;28;20041;-78
2023/05/24 10:22:32;;;;;;;10.73;3.70;;;;;;;;;;5018659;28;20049;-78
2023/05/24 10:24:58;;;;;;;11.07;3.42;;;;;;;;;;5026994;28;20045;-78
2023/05/24 10:27:27;;;;;;;7.25;3.40;;;;;;;;;;5020624;28;20173;-78
2023/05/24 10:29:53;;;;;;;8.40;3.08;;;;;;;;;;5018144;28;20057;-76
2023/05/24 10:32:20;;;;;;;8.85;3.30;;;;;;;;;;5021674;28;20063;-78
2023/05/24 10:34:47;;;;;;;8.38;3.22;;;;;;;;;;5024621;28;20053;-79
2023/05/24 10:37:13;;;;;;;11.10;3.38;;;;;;;;;;5020468;28;20045;-79
2023/05/24 10:39:41;;;;;;;9.35;3.47;;;;;;;;;;5020180;28;20088;-79
2023/05/24 10:42:07;;;;;;;7.32;3.05;;;;;;;;;;5023423;28;20122;-80
2023/05/24 10:44:33;;;;;;;11.75;3.28;;;;;;;;;;5023793;28;20045;-80
2023/05/24 10:47:02;;;;;;;10.25;3.42;;;;;;;;;;5023738;28;20057;-79
2023/05/24 10:49:29;;;;;;;9.23;3.20;;;;;;;;;;5026011;28;20412;-79
2023/05/24 10:52:02;;;;;;;6.65;3.28;;;;;;;;;;5025674;28;20095;-79
2023/05/24 10:54:28;;;;;;;9.88;3.92;;;;;;;;;;5024955;28;20135;-79
2023/05/24 10:56:55;;;;;;;8.10;3.22;;;;;;;;;;5027785;28;20129;-79
2023/05/24 10:59:36;;;;;;;6.72;2.95;;;;;;;;;;5023703;28;20065;-79
2023/05/24 11:02:03;;;;;;;8.63;3.35;;;;;;;;;;5020396;28;20054;-79
2023/05/24 11:04:33;;;;;;;12.75;3.78;;;;;;;;;;5023572;28;20072;-79
2023/05/24 11:07:04;;;;;;;10.60;3.55;;;;;;;;;;5021742;28;20421;-79
2023/05/24 11:09:30;;;;;;;11.63;3.40;;;;;;;;;;5025109;28;20042;-78
2023/05/24 11:12:06;;;;;;;7.25;3.25;;;;;;;;;;5027471;28;20138;-78
2023/05/24 11:14:33;;;;;;;7.50;3.38;;;;;;;;;;5039027;28;20134;-79
2023/05/24 11:16:59;;;;;;;8.02;3.17;;;;;;;;;;5026724;28;20045;-80
2023/05/24 11:19:32;;;;;;;7.78;2.97;;;;;;;;;;5026877;28;20061;-79
2023/05/24 11:21:58;;;;;;;8.18;3.60;;;;;;;;;;5024909;28;20053;-77
2023/05/24 11:24:25;;;;;;;9.32;3.63;;;;;;;;;;5025218;28;20244;-80
2023/05/24 11:26:51;;;;;;;7.68;3.42;;;;;;;;;;5028612;28;20091;-80
2023/05/24 11:29:20;;;;;;;8.05;3.20;;;;;;;;;;5026892;28;20045;-80
2023/05/24 11:31:47;;;;;;;7.22;3.05;;;;;;;;;;5032381;28;20049;-79
2023/05/24 11:34:14;;;;;;;7.90;3.05;;;;;;;;;;5026528;28;20108;-80
2023/05/24 11:36:41;;;;;;;7.15;3.17;;;;;;;;;;5030912;28;20045;-80
2023/05/24 11:39:08;;;;;;;7.47;3.17;;;;;;;;;;5030443;28;20053;-80
2023/05/24 11:41:35;;;;;;;9.13;3.10;;;;;;;;;;5026522;28;20051;-80
2023/05/24 11:44:02;;;;;;;9.38;3.55;;;;;;;;;;5030649;28;20425;-79
2023/05/24 11:46:28;;;;;;;7.60;3.20;;;;;;;;;;5027454;28;20057;-80
2023/05/24 11:48:56;;;;;;;7.00;3.03;;;;;;;;;;5029889;28;20092;-79
2023/05/24 11:51:25;;;;;;;10.02;3.15;;;;;;;;;;5032513;28;20045;-79
2023/05/24 11:53:51;;;;;;;5.97;3.20;;;;;;;;;;5027120;28;20053;-79
2023/05/24 11:56:17;;;;;;;7.70;3.08;;;;;;;;;;5027254;28;20041;-78
2023/05/24 11:58:50;;;;;;;10.95;3.78;;;;;;;;;;5029540;28;20559;-78
2023/05/24 12:01:23;;;;;;;9.35;3.35;;;;;;;;;;5026589;28;20034;-80
2023/05/24 12:03:50;;;;;;;8.65;3.35;;;;;;;;;;5027687;28;20045;-79
2023/05/24 12:06:16;;;;;;;6.53;2.80;;;;;;;;;;5027436;28;20116;-79
2023/05/24 12:08:42;;;;;;;9.18;3.60;;;;;;;;;;5030890;28;20120;-79
2023/05/24 12:11:23;;;;;;;5.43;3.00;;;;;;;;;;5021451;28;20060;-79
2023/05/24 12:13:49;;;;;;;8.68;3.42;;;;;;;;;;5030213;28;20117;-79
2023/05/24 12:16:15;;;;;;;7.40;3.17;;;;;;;;;;5030310;28;20497;-78
2023/05/24 12:18:42;;;;;;;8.35;3.20;;;;;;;;;;5026649;28;20068;-79
2023/05/24 12:21:10;;;;;;;8.27;3.55;;;;;;;;;;5028986;28;20033;-79
2023/05/24 12:23:36;;;;;;;6.07;3.00;;;;;;;;;;5026463;28;20055;-79
2023/05/24 12:26:03;;;;;;;10.32;2.90;;;;;;;;;;5024996;28;20041;-79
2023/05/24 12:28:34;;;;;;;4.95;3.00;;;;;;;;;;5024517;28;20128;-79
2023/05/24 12:31:01;;;;;;;5.68;3.40;;;;;;;;;;5024930;28;20045;-78
2023/05/24 12:33:27;;;;;;;8.30;3.25;;;;;;;;;;5031064;28;20527;-78
2023/05/24 12:35:55;;;;;;;7.80;3.10;;;;;;;;;;5025876;28;20192;-79
2023/05/24 12:38:24;;;;;;;9.43;3.33;;;;;;;;;;5026425;28;20041;-79
2023/05/24 12:40:50;;;;;;;4.97;3.00;;;;;;;;;;5028667;28;20099;-78
2023/05/24 12:43:17;;;;;;;8.38;3.42;;;;;;;;;;5026757;28;20078;-78
2023/05/24 12:45:43;;;;;;;6.68;2.95;;;;;;;;;;5024056;28;20128;-78
2023/05/24 12:48:13;;;;;;;7.43;3.13;;;;;;;;;;5018351;28;20053;-79
2023/05/24 12:50:39;;;;;;;4.60;3.10;;;;;;;;;;5026883;28;20497;-78
2023/05/24 12:53:05;;;;;;;7.78;3.38;;;;;;;;;;5029567;28;20044;-79
2023/05/24 12:55:31;;;;;;;10.63;3.55;;;;;;;;;;5028814;28;20045;-78
2023/05/24 12:58:00;;;;;;;7.20;3.45;;;;;;;;;;5027435;28;20045;-78
2023/05/24 13:00:27;;;;;;;7.28;3.20;;;;;;;;;;5025025;28;21837;-79
2023/05/24 13:02:58;;;;;;;6.35;3.50;;;;;;;;;;5025909;28;20041;-81
2023/05/24 13:05:27;;;;;;;8.82;3.17;;;;;;;;;;5020617;28;20057;-78
2023/05/24 13:07:55;;;;;;;9.30;3.38;;;;;;;;;;5028203;28;20041;-78
2023/05/24 13:10:21;;;;;;;9.18;3.28;;;;;;;;;;5022992;28;20045;-78
2023/05/24 13:12:47;;;;;;;8.43;3.35;;;;;;;;;;5028928;28;20442;-79
2023/05/24 13:15:13;;;;;;;9.75;3.30;;;;;;;;;;5028499;28;20053;-79
2023/05/24 13:17:42;;;;;;;5.53;3.28;;;;;;;;;;5026909;28;20041;-78
2023/05/24 13:20:10;;;;;;;6.82;2.92;;;;;;;;;;5025867;28;20056;-79
2023/05/24 13:22:37;;;;;;;8.82;3.42;;;;;;;;;;5027837;28;20054;-79
2023/05/24 13:25:04;;;;;;;9.30;3.65;;;;;;;;;;5026245;28;20044;-78
2023/05/24 13:27:30;;;;;;;8.82;3.50;;;;;;;;;;5024905;28;20053;-79
2023/05/24 13:29:56;;;;;;;5.95;3.10;;;;;;;;;;5023271;28;20080;-78
2023/05/24 13:32:22;;;;;;;7.80;2.90;;;;;;;;;;5026733;28;20049;-78
2023/05/24 13:34:48;;;;;;;9.38;3.25;;;;;;;;;;5028266;28;20180;-78
2023/05/24 13:37:15;;;;;;;9.95;3.90;;;;;;;;;;5027112;28;20599;-79
2023/05/24 13:39:41;;;;;;;10.15;4.10;;;;;;;;;;5025444;28;20412;-78
2023/05/24 13:42:07;;;;;;;9.23;3.47;;;;;;;;;;5026493;28;20184;-79
2023/05/24 13:44:34;;;;;;;9.23;3.33;;;;;;;;;;5029677;28;20300;-78
2023/05/24 13:47:01;;;;;;;8.25;3.20;;;;;;;;;;5026107;28;20050;-78
2023/05/24 13:49:27;;;;;;;6.47;2.92;;;;;;;;;;5024590;28;20140;-79
2023/05/24 13:51:54;;;;;;;8.98;3.40;;;;;;;;;;5028232;28;20049;-79
2023/05/24 13:54:20;;;;;;;7.03;3.35;;;;;;;;;;5025747;28;20049;-78
2023/05/24 13:56:47;;;;;;;10.25;3.70;;;;;;;;;;5028332;28;20045;-78
2023/05/24 13:59:14;;;;;;;8.60;3.30;;;;;;;;;;5027839;28;20224;-78
2023/05/24 14:01:40;;;;;;;8.52;3.17;;;;;;;;;;5026824;28;20041;-78
2023/05/24 14:04:06;;;;;;;9.45;3.33;;;;;;;;;;5027099;28;20382;-78
2023/05/24 14:06:33;;;;;;;9.50;3.40;;;;;;;;;;5027218;28;20093;-77
2023/05/24 14:08:59;;;;;;;6.65;3.30;;;;;;;;;;5026038;28;20071;-78
2023/05/24 14:11:26;;;;;;;7.38;3.15;;;;;;;;;;5026628;28;20092;-78
2023/05/24 14:13:52;;;;;;;9.80;3.50;;;;;;;;;;5024300;28;20060;-78
2023/05/24 14:16:18;;;;;;;7.57;3.22;;;;;;;;;;5029504;28;20045;-80
2023/05/24 14:18:47;;;;;;;7.82;3.10;;;;;;;;;;5026861;28;20420;-79
2023/05/24 14:21:13;;;;;;;11.40;3.22;;;;;;;;;;5012575;28;20081;-79
2023/05/24 14:23:39;;;;;;;10.45;3.83;;;;;;;;;;5036019;28;20378;-78
2023/05/24 14:26:05;;;;;;;10.02;3.10;;;;;;;;;;5043354;28;20064;-76
2023/05/24 14:28:31;;;;;;;8.00;3.55;;;;;;;;;;5023866;28;20059;-77
2023/05/24 14:30:57;;;;;;;7.18;2.97;;;;;;;;;;5029235;28;20049;-77
2023/05/24 14:33:23;;;;;;;7.38;3.25;;;;;;;;;;5029532;28;20907;-77